sensor_id;sensor_type;location;lat;lon;timestamp;pressure;altitude;pressure_sealevel;temperature
10598;BMP180;5346;48.766;8.674;2022-08-21T00:00:24;94282.00;;;15.70
10598;BMP180;5346;48.766;8.674;2022-08-21T00:03:02;94297.00;;;15.40
10598;BMP180;5346;48.766;8.674;2022-08-21T00:05:48;94309.00;;;15.30
10598;BMP180;5346;48.766;8.674;2022-08-21T00:08:18;94294.00;;;15.60
10598;BMP180;5346;48.766;8.674;2022-08-21T00:10:53;94309.00;;;15.60
10598;BMP180;5346;48.766;8.674;2022-08-21T00:13:20;94307.00;;;15.50
10598;BMP180;5346;48.766;8.674;2022-08-21T00:15:49;94301.00;;;15.50
10598;BMP180;5346;48.766;8.674;2022-08-21T00:18:26;94271.00;;;15.30
10598;BMP180;5346;48.766;8.674;2022-08-21T00:20:53;94285.00;;;15.50
10598;BMP180;5346;48.766;8.674;2022-08-21T00:23:21;94263.00;;;15.60
10598;BMP180;5346;48.766;8.674;2022-08-21T00:25:54;94293.00;;;15.30
10598;BMP180;5346;48.766;8.674;2022-08-21T00:28:21;94286.00;;;15.30
10598;BMP180;5346;48.766;8.674;2022-08-21T00:30:48;94279.00;;;15.20
10598;BMP180;5346;48.766;8.674;2022-08-21T00:33:23;94284.00;;;15.30
10598;BMP180;5346;48.766;8.674;2022-08-21T00:35:51;94292.00;;;15.40
10598;BMP180;5346;48.766;8.674;2022-08-21T00:38:21;94275.00;;;15.20
10598;BMP180;5346;48.766;8.674;2022-08-21T00:41:04;94289.00;;;15.00
10598;BMP180;5346;48.766;8.674;2022-08-21T00:43:57;94264.00;;;14.90
10598;BMP180;5346;48.766;8.674;2022-08-21T00:46:32;94263.00;;;14.60
10598;BMP180;5346;48.766;8.674;2022-08-21T00:48:59;94270.00;;;14.60
10598;BMP180;5346;48.766;8.674;2022-08-21T00:51:42;94273.00;;;14.60
10598;BMP180;5346;48.766;8.674;2022-08-21T00:54:21;94270.00;;;14.60
10598;BMP180;5346;48.766;8.674;2022-08-21T00:56:57;94269.00;;;14.70
10598;BMP180;5346;48.766;8.674;2022-08-21T00:59:37;94271.00;;;14.50
10598;BMP180;5346;48.766;8.674;2022-08-21T01:02:08;94265.00;;;14.40
10598;BMP180;5346;48.766;8.674;2022-08-21T01:04:42;94256.00;;;14.70
10598;BMP180;5346;48.766;8.674;2022-08-21T01:07:09;94268.00;;;14.70
10598;BMP180;5346;48.766;8.674;2022-08-21T01:09:37;94274.00;;;14.70
10598;BMP180;5346;48.766;8.674;2022-08-21T01:12:11;94247.00;;;14.70
10598;BMP180;5346;48.766;8.674;2022-08-21T01:14:41;94268.00;;;14.80
10598;BMP180;5346;48.766;8.674;2022-08-21T01:17:11;94269.00;;;14.80
10598;BMP180;5346;48.766;8.674;2022-08-21T01:19:46;94258.00;;;14.90
10598;BMP180;5346;48.766;8.674;2022-08-21T01:22:13;94261.00;;;14.90
10598;BMP180;5346;48.766;8.674;2022-08-21T01:24:40;94273.00;;;15.00
10598;BMP180;5346;48.766;8.674;2022-08-21T01:27:14;94257.00;;;15.00
10598;BMP180;5346;48.766;8.674;2022-08-21T01:32:22;94273.00;;;14.90
10598;BMP180;5346;48.766;8.674;2022-08-21T01:34:50;94251.00;;;15.00
10598;BMP180;5346;48.766;8.674;2022-08-21T01:37:20;94234.00;;;15.20
10598;BMP180;5346;48.766;8.674;2022-08-21T01:40:03;94241.00;;;15.10
10598;BMP180;5346;48.766;8.674;2022-08-21T01:42:46;94255.00;;;15.10
10598;BMP180;5346;48.766;8.674;2022-08-21T01:45:20;94240.00;;;14.90
10598;BMP180;5346;48.766;8.674;2022-08-21T01:47:47;94237.00;;;15.10
10598;BMP180;5346;48.766;8.674;2022-08-21T01:50:17;94256.00;;;15.00
10598;BMP180;5346;48.766;8.674;2022-08-21T01:52:51;94227.00;;;15.00
10598;BMP180;5346;48.766;8.674;2022-08-21T01:55:21;94236.00;;;15.10
10598;BMP180;5346;48.766;8.674;2022-08-21T01:57:49;94242.00;;;15.00
10598;BMP180;5346;48.766;8.674;2022-08-21T02:00:23;94218.00;;;14.90
10598;BMP180;5346;48.766;8.674;2022-08-21T02:02:51;94238.00;;;14.80
10598;BMP180;5346;48.766;8.674;2022-08-21T02:05:19;94236.00;;;14.80
10598;BMP180;5346;48.766;8.674;2022-08-21T02:07:54;94243.00;;;14.80
10598;BMP180;5346;48.766;8.674;2022-08-21T02:10:30;94247.00;;;14.90
10598;BMP180;5346;48.766;8.674;2022-08-21T02:13:04;94222.00;;;14.80
10598;BMP180;5346;48.766;8.674;2022-08-21T02:15:31;94219.00;;;14.70
10598;BMP180;5346;48.766;8.674;2022-08-21T02:18:00;94236.00;;;14.80
10598;BMP180;5346;48.766;8.674;2022-08-21T02:20:44;94245.00;;;14.90
10598;BMP180;5346;48.766;8.674;2022-08-21T02:23:12;94227.00;;;14.70
10598;BMP180;5346;48.766;8.674;2022-08-21T02:25:56;94212.00;;;14.60
10598;BMP180;5346;48.766;8.674;2022-08-21T02:28:23;94214.00;;;14.60
10598;BMP180;5346;48.766;8.674;2022-08-21T02:30:57;94229.00;;;14.70
10598;BMP180;5346;48.766;8.674;2022-08-21T02:33:25;94228.00;;;14.80
10598;BMP180;5346;48.766;8.674;2022-08-21T02:35:54;94208.00;;;14.90
10598;BMP180;5346;48.766;8.674;2022-08-21T02:38:38;94228.00;;;14.80
10598;BMP180;5346;48.766;8.674;2022-08-21T02:41:21;94226.00;;;14.60
10598;BMP180;5346;48.766;8.674;2022-08-21T02:43:54;94208.00;;;14.60
10598;BMP180;5346;48.766;8.674;2022-08-21T02:46:21;94211.00;;;14.50
10598;BMP180;5346;48.766;8.674;2022-08-21T02:48:49;94213.00;;;14.30
10598;BMP180;5346;48.766;8.674;2022-08-21T02:51:22;94224.00;;;14.20
10598;BMP180;5346;48.766;8.674;2022-08-21T02:53:49;94224.00;;;14.10
10598;BMP180;5346;48.766;8.674;2022-08-21T02:56:20;94212.00;;;14.10
10598;BMP180;5346;48.766;8.674;2022-08-21T02:58:57;94217.00;;;14.10
10598;BMP180;5346;48.766;8.674;2022-08-21T03:01:24;94210.00;;;14.10
10598;BMP180;5346;48.766;8.674;2022-08-21T03:03:51;94214.00;;;14.20
10598;BMP180;5346;48.766;8.674;2022-08-21T03:06:26;94208.00;;;14.10
10598;BMP180;5346;48.766;8.674;2022-08-21T03:08:53;94201.00;;;14.30
10598;BMP180;5346;48.766;8.674;2022-08-21T03:11:21;94218.00;;;14.40
10598;BMP180;5346;48.766;8.674;2022-08-21T03:13:54;94221.00;;;14.20
10598;BMP180;5346;48.766;8.674;2022-08-21T03:16:21;94199.00;;;14.30
10598;BMP180;5346;48.766;8.674;2022-08-21T03:18:48;94201.00;;;14.40
10598;BMP180;5346;48.766;8.674;2022-08-21T03:21:22;94203.00;;;14.40
10598;BMP180;5346;48.766;8.674;2022-08-21T03:23:50;94211.00;;;14.50
10598;BMP180;5346;48.766;8.674;2022-08-21T03:26:18;94202.00;;;14.40
10598;BMP180;5346;48.766;8.674;2022-08-21T03:28:53;94201.00;;;14.40
10598;BMP180;5346;48.766;8.674;2022-08-21T03:31:21;94203.00;;;14.40
10598;BMP180;5346;48.766;8.674;2022-08-21T03:33:48;94200.00;;;14.50
10598;BMP180;5346;48.766;8.674;2022-08-21T03:36:27;94213.00;;;14.40
10598;BMP180;5346;48.766;8.674;2022-08-21T03:39:03;94207.00;;;14.40
10598;BMP180;5346;48.766;8.674;2022-08-21T03:41:44;94202.00;;;14.60
10598;BMP180;5346;48.766;8.674;2022-08-21T03:44:11;94183.00;;;14.80
10598;BMP180;5346;48.766;8.674;2022-08-21T03:46:38;94201.00;;;14.80
10598;BMP180;5346;48.766;8.674;2022-08-21T03:49:13;94196.00;;;14.90
10598;BMP180;5346;48.766;8.674;2022-08-21T03:51:40;94213.00;;;14.70
10598;BMP180;5346;48.766;8.674;2022-08-21T03:54:07;94204.00;;;14.70
10598;BMP180;5346;48.766;8.674;2022-08-21T03:56:41;94203.00;;;14.70
10598;BMP180;5346;48.766;8.674;2022-08-21T03:59:09;94213.00;;;14.80
10598;BMP180;5346;48.766;8.674;2022-08-21T04:01:36;94208.00;;;14.60
10598;BMP180;5346;48.766;8.674;2022-08-21T04:04:12;94208.00;;;14.30
10598;BMP180;5346;48.766;8.674;2022-08-21T04:06:39;94217.00;;;14.20
10598;BMP180;5346;48.766;8.674;2022-08-21T04:09:06;94211.00;;;14.00
10598;BMP180;5346;48.766;8.674;2022-08-21T04:11:40;94228.00;;;13.90
10598;BMP180;5346;48.766;8.674;2022-08-21T04:14:08;94215.00;;;13.70
10598;BMP180;5346;48.766;8.674;2022-08-21T04:16:35;94232.00;;;13.70
10598;BMP180;5346;48.766;8.674;2022-08-21T04:19:10;94216.00;;;13.70
10598;BMP180;5346;48.766;8.674;2022-08-21T04:21:39;94231.00;;;13.80
10598;BMP180;5346;48.766;8.674;2022-08-21T04:24:08;94251.00;;;13.90
10598;BMP180;5346;48.766;8.674;2022-08-21T04:26:42;94225.00;;;13.90
10598;BMP180;5346;48.766;8.674;2022-08-21T04:29:10;94235.00;;;13.90
10598;BMP180;5346;48.766;8.674;2022-08-21T04:31:38;94224.00;;;13.90
10598;BMP180;5346;48.766;8.674;2022-08-21T04:34:11;94235.00;;;13.90
10598;BMP180;5346;48.766;8.674;2022-08-21T04:36:39;94229.00;;;13.90
10598;BMP180;5346;48.766;8.674;2022-08-21T04:39:06;94245.00;;;13.80
10598;BMP180;5346;48.766;8.674;2022-08-21T04:41:46;94234.00;;;13.80
10598;BMP180;5346;48.766;8.674;2022-08-21T04:44:13;94236.00;;;13.90
10598;BMP180;5346;48.766;8.674;2022-08-21T04:46:46;94250.00;;;14.00
10598;BMP180;5346;48.766;8.674;2022-08-21T04:49:13;94218.00;;;14.10
10598;BMP180;5346;48.766;8.674;2022-08-21T04:51:41;94257.00;;;14.10
10598;BMP180;5346;48.766;8.674;2022-08-21T04:54:21;94254.00;;;14.00
10598;BMP180;5346;48.766;8.674;2022-08-21T04:56:55;94231.00;;;14.10
10598;BMP180;5346;48.766;8.674;2022-08-21T04:59:42;94256.00;;;14.30
10598;BMP180;5346;48.766;8.674;2022-08-21T05:02:10;94245.00;;;14.50
10598;BMP180;5346;48.766;8.674;2022-08-21T05:04:48;94232.00;;;14.60
10598;BMP180;5346;48.766;8.674;2022-08-21T05:07:24;94248.00;;;14.80
10598;BMP180;5346;48.766;8.674;2022-08-21T05:10:09;94243.00;;;15.00
10598;BMP180;5346;48.766;8.674;2022-08-21T05:12:41;94232.00;;;15.10
10598;BMP180;5346;48.766;8.674;2022-08-21T05:15:17;94258.00;;;15.20
10598;BMP180;5346;48.766;8.674;2022-08-21T05:17:45;94250.00;;;15.30
10598;BMP180;5346;48.766;8.674;2022-08-21T05:20:27;94268.00;;;15.40
10598;BMP180;5346;48.766;8.674;2022-08-21T05:23:07;94243.00;;;15.50
10598;BMP180;5346;48.766;8.674;2022-08-21T05:25:35;94271.00;;;15.50
10598;BMP180;5346;48.766;8.674;2022-08-21T05:28:09;94268.00;;;15.50
10598;BMP180;5346;48.766;8.674;2022-08-21T05:30:38;94270.00;;;15.60
10598;BMP180;5346;48.766;8.674;2022-08-21T05:33:07;94250.00;;;15.90
10598;BMP180;5346;48.766;8.674;2022-08-21T05:35:41;94273.00;;;16.00
10598;BMP180;5346;48.766;8.674;2022-08-21T05:38:08;94273.00;;;16.00
10598;BMP180;5346;48.766;8.674;2022-08-21T05:40:48;94275.00;;;16.00
10598;BMP180;5346;48.766;8.674;2022-08-21T05:43:22;94251.00;;;16.00
10598;BMP180;5346;48.766;8.674;2022-08-21T05:45:49;94237.00;;;16.00
10598;BMP180;5346;48.766;8.674;2022-08-21T05:48:22;94278.00;;;16.20
10598;BMP180;5346;48.766;8.674;2022-08-21T05:50:57;94268.00;;;16.30
10598;BMP180;5346;48.766;8.674;2022-08-21T05:53:24;94258.00;;;16.50
10598;BMP180;5346;48.766;8.674;2022-08-21T05:55:52;94281.00;;;16.60
10598;BMP180;5346;48.766;8.674;2022-08-21T05:58:25;94273.00;;;16.80
10598;BMP180;5346;48.766;8.674;2022-08-21T06:00:52;94267.00;;;16.90
10598;BMP180;5346;48.766;8.674;2022-08-21T06:03:28;94262.00;;;17.10
10598;BMP180;5346;48.766;8.674;2022-08-21T06:06:03;94276.00;;;17.30
10598;BMP180;5346;48.766;8.674;2022-08-21T06:08:31;94257.00;;;17.40
10598;BMP180;5346;48.766;8.674;2022-08-21T06:11:01;94272.00;;;17.60
10598;BMP180;5346;48.766;8.674;2022-08-21T06:13:36;94270.00;;;17.70
10598;BMP180;5346;48.766;8.674;2022-08-21T06:16:12;94270.00;;;17.90
10598;BMP180;5346;48.766;8.674;2022-08-21T06:18:46;94224.00;;;18.00
10598;BMP180;5346;48.766;8.674;2022-08-21T06:21:14;94268.00;;;18.20
10598;BMP180;5346;48.766;8.674;2022-08-21T06:23:42;94269.00;;;18.40
10598;BMP180;5346;48.766;8.674;2022-08-21T06:26:17;94259.00;;;18.60
10598;BMP180;5346;48.766;8.674;2022-08-21T06:28:44;94245.00;;;18.80
10598;BMP180;5346;48.766;8.674;2022-08-21T06:31:22;94272.00;;;18.70
10598;BMP180;5346;48.766;8.674;2022-08-21T06:33:56;94245.00;;;18.90
10598;BMP180;5346;48.766;8.674;2022-08-21T06:36:27;94250.00;;;19.10
10598;BMP180;5346;48.766;8.674;2022-08-21T06:38:54;94246.00;;;19.40
10598;BMP180;5346;48.766;8.674;2022-08-21T06:41:42;94249.00;;;19.50
10598;BMP180;5346;48.766;8.674;2022-08-21T06:44:17;94262.00;;;19.70
10598;BMP180;5346;48.766;8.674;2022-08-21T06:46:52;94244.00;;;19.90
10598;BMP180;5346;48.766;8.674;2022-08-21T06:49:19;94252.00;;;20.00
10598;BMP180;5346;48.766;8.674;2022-08-21T06:51:48;94254.00;;;20.00
10598;BMP180;5346;48.766;8.674;2022-08-21T06:54:22;94254.00;;;20.20
10598;BMP180;5346;48.766;8.674;2022-08-21T06:56:50;94255.00;;;20.40
10598;BMP180;5346;48.766;8.674;2022-08-21T06:59:17;94250.00;;;20.40
10598;BMP180;5346;48.766;8.674;2022-08-21T07:01:50;94260.00;;;20.60
10598;BMP180;5346;48.766;8.674;2022-08-21T07:04:18;94264.00;;;20.50
10598;BMP180;5346;48.766;8.674;2022-08-21T07:06:47;94265.00;;;20.60
10598;BMP180;5346;48.766;8.674;2022-08-21T07:09:21;94260.00;;;20.70
10598;BMP180;5346;48.766;8.674;2022-08-21T07:11:54;94258.00;;;20.90
10598;BMP180;5346;48.766;8.674;2022-08-21T07:14:28;94264.00;;;20.90
10598;BMP180;5346;48.766;8.674;2022-08-21T07:16:55;94265.00;;;21.10
10598;BMP180;5346;48.766;8.674;2022-08-21T07:19:23;94267.00;;;21.50
10598;BMP180;5346;48.766;8.674;2022-08-21T07:21:59;94261.00;;;21.30
10598;BMP180;5346;48.766;8.674;2022-08-21T07:24:27;94270.00;;;21.20
10598;BMP180;5346;48.766;8.674;2022-08-21T07:26:55;94265.00;;;21.20
10598;BMP180;5346;48.766;8.674;2022-08-21T07:29:34;94264.00;;;21.40
10598;BMP180;5346;48.766;8.674;2022-08-21T07:32:02;94256.00;;;21.80
10598;BMP180;5346;48.766;8.674;2022-08-21T07:34:36;94261.00;;;21.90
10598;BMP180;5346;48.766;8.674;2022-08-21T07:37:04;94260.00;;;21.80
10598;BMP180;5346;48.766;8.674;2022-08-21T07:39:36;94260.00;;;21.80
10598;BMP180;5346;48.766;8.674;2022-08-21T07:42:10;94259.00;;;21.90
10598;BMP180;5346;48.766;8.674;2022-08-21T07:44:37;94266.00;;;22.30
10598;BMP180;5346;48.766;8.674;2022-08-21T07:47:05;94251.00;;;22.20
10598;BMP180;5346;48.766;8.674;2022-08-21T07:49:39;94262.00;;;22.20
10598;BMP180;5346;48.766;8.674;2022-08-21T07:52:07;94257.00;;;22.50
10598;BMP180;5346;48.766;8.674;2022-08-21T07:54:34;94267.00;;;22.30
10598;BMP180;5346;48.766;8.674;2022-08-21T07:57:08;94259.00;;;22.40
10598;BMP180;5346;48.766;8.674;2022-08-21T07:59:36;94260.00;;;22.60
10598;BMP180;5346;48.766;8.674;2022-08-21T08:02:03;94258.00;;;22.50
10598;BMP180;5346;48.766;8.674;2022-08-21T08:04:37;94261.00;;;22.90
10598;BMP180;5346;48.766;8.674;2022-08-21T08:07:17;94259.00;;;23.00
10598;BMP180;5346;48.766;8.674;2022-08-21T08:09:51;94264.00;;;23.00
10598;BMP180;5346;48.766;8.674;2022-08-21T08:12:18;94263.00;;;23.00
10598;BMP180;5346;48.766;8.674;2022-08-21T08:14:47;94257.00;;;23.20
10598;BMP180;5346;48.766;8.674;2022-08-21T08:17:22;94256.00;;;23.30
10598;BMP180;5346;48.766;8.674;2022-08-21T08:19:50;94254.00;;;23.30
10598;BMP180;5346;48.766;8.674;2022-08-21T08:22:21;94255.00;;;23.30
10598;BMP180;5346;48.766;8.674;2022-08-21T08:24:55;94250.00;;;23.30
10598;BMP180;5346;48.766;8.674;2022-08-21T08:27:24;94251.00;;;23.50
10598;BMP180;5346;48.766;8.674;2022-08-21T08:29:52;94247.00;;;23.50
10598;BMP180;5346;48.766;8.674;2022-08-21T08:32:36;94253.00;;;23.90
10598;BMP180;5346;48.766;8.674;2022-08-21T08:35:07;94243.00;;;24.00
10598;BMP180;5346;48.766;8.674;2022-08-21T08:37:44;94240.00;;;23.80
10598;BMP180;5346;48.766;8.674;2022-08-21T08:43:31;94234.00;;;24.00
10598;BMP180;5346;48.766;8.674;2022-08-21T08:46:06;94235.00;;;24.30
10598;BMP180;5346;48.766;8.674;2022-08-21T08:52:30;94235.00;;;24.00
10598;BMP180;5346;48.766;8.674;2022-08-21T08:55:11;94236.00;;;24.30
10598;BMP180;5346;48.766;8.674;2022-08-21T08:57:53;94224.00;;;24.60
10598;BMP180;5346;48.766;8.674;2022-08-21T09:00:34;94227.00;;;24.70
10598;BMP180;5346;48.766;8.674;2022-08-21T09:03:03;94216.00;;;25.20
10598;BMP180;5346;48.766;8.674;2022-08-21T09:05:55;94219.00;;;25.30
10598;BMP180;5346;48.766;8.674;2022-08-21T09:11:50;94216.00;;;25.10
10598;BMP180;5346;48.766;8.674;2022-08-21T09:23:54;94218.00;;;23.90
10598;BMP180;5346;48.766;8.674;2022-08-21T09:26:53;94207.00;;;24.70
10598;BMP180;5346;48.766;8.674;2022-08-21T09:29:37;94209.00;;;25.60
10598;BMP180;5346;48.766;8.674;2022-08-21T09:32:17;94203.00;;;25.70
10598;BMP180;5346;48.766;8.674;2022-08-21T09:35:10;94202.00;;;25.80
10598;BMP180;5346;48.766;8.674;2022-08-21T09:38:01;94225.00;;;25.90
10598;BMP180;5346;48.766;8.674;2022-08-21T09:40:47;94211.00;;;24.80
10598;BMP180;5346;48.766;8.674;2022-08-21T09:43:23;94206.00;;;25.10
10598;BMP180;5346;48.766;8.674;2022-08-21T09:46:08;94206.00;;;25.60
10598;BMP180;5346;48.766;8.674;2022-08-21T09:48:49;94200.00;;;25.60
10598;BMP180;5346;48.766;8.674;2022-08-21T09:51:30;94204.00;;;25.50
10598;BMP180;5346;48.766;8.674;2022-08-21T09:54:14;94199.00;;;25.60
10598;BMP180;5346;48.766;8.674;2022-08-21T09:56:56;94209.00;;;25.50
10598;BMP180;5346;48.766;8.674;2022-08-21T09:59:44;94198.00;;;25.80
10598;BMP180;5346;48.766;8.674;2022-08-21T10:05:16;94202.00;;;26.60
10598;BMP180;5346;48.766;8.674;2022-08-21T10:07:48;94196.00;;;26.80
10598;BMP180;5346;48.766;8.674;2022-08-21T10:10:28;94204.00;;;27.20
10598;BMP180;5346;48.766;8.674;2022-08-21T10:16:03;94201.00;;;25.90
10598;BMP180;5346;48.766;8.674;2022-08-21T10:24:20;94197.00;;;25.50
10598;BMP180;5346;48.766;8.674;2022-08-21T10:29:49;94209.00;;;26.30
10598;BMP180;5346;48.766;8.674;2022-08-21T10:43:26;94180.00;;;25.00
10598;BMP180;5346;48.766;8.674;2022-08-21T10:46:32;94187.00;;;25.80
10598;BMP180;5346;48.766;8.674;2022-08-21T10:49:37;94200.00;;;24.90
10598;BMP180;5346;48.766;8.674;2022-08-21T10:55:21;94180.00;;;25.80
10598;BMP180;5346;48.766;8.674;2022-08-21T10:57:58;94190.00;;;25.70
10598;BMP180;5346;48.766;8.674;2022-08-21T11:00:43;94195.00;;;24.90
10598;BMP180;5346;48.766;8.674;2022-08-21T11:03:41;94182.00;;;24.80
10598;BMP180;5346;48.766;8.674;2022-08-21T11:09:14;94167.00;;;27.10
10598;BMP180;5346;48.766;8.674;2022-08-21T11:11:55;94158.00;;;27.60
10598;BMP180;5346;48.766;8.674;2022-08-21T11:17:24;94154.00;;;28.00
10598;BMP180;5346;48.766;8.674;2022-08-21T11:22:52;94151.00;;;29.40
10598;BMP180;5346;48.766;8.674;2022-08-21T11:25:37;94149.00;;;29.10
10598;BMP180;5346;48.766;8.674;2022-08-21T11:28:23;94144.00;;;28.50
10598;BMP180;5346;48.766;8.674;2022-08-21T11:36:54;94150.00;;;27.50
10598;BMP180;5346;48.766;8.674;2022-08-21T11:45:56;94165.00;;;27.50
10598;BMP180;5346;48.766;8.674;2022-08-21T11:51:44;94136.00;;;27.80
10598;BMP180;5346;48.766;8.674;2022-08-21T11:54:36;94138.00;;;28.40
10598;BMP180;5346;48.766;8.674;2022-08-21T12:00:41;94139.00;;;29.20
10598;BMP180;5346;48.766;8.674;2022-08-21T12:06:16;94148.00;;;29.60
10598;BMP180;5346;48.766;8.674;2022-08-21T12:09:04;94138.00;;;29.70
10598;BMP180;5346;48.766;8.674;2022-08-21T12:11:59;94140.00;;;28.70
10598;BMP180;5346;48.766;8.674;2022-08-21T12:14:39;94129.00;;;28.60
10598;BMP180;5346;48.766;8.674;2022-08-21T12:17:27;94145.00;;;28.60
10598;BMP180;5346;48.766;8.674;2022-08-21T12:20:36;94152.00;;;28.20
10598;BMP180;5346;48.766;8.674;2022-08-21T12:29:07;94135.00;;;27.80
10598;BMP180;5346;48.766;8.674;2022-08-21T12:31:49;94140.00;;;28.40
10598;BMP180;5346;48.766;8.674;2022-08-21T12:34:33;94128.00;;;28.10
10598;BMP180;5346;48.766;8.674;2022-08-21T12:40:03;94128.00;;;27.50
10598;BMP180;5346;48.766;8.674;2022-08-21T12:42:47;94132.00;;;28.30
10598;BMP180;5346;48.766;8.674;2022-08-21T12:45:36;94123.00;;;28.50
10598;BMP180;5346;48.766;8.674;2022-08-21T12:48:16;94125.00;;;28.70
10598;BMP180;5346;48.766;8.674;2022-08-21T12:56:12;94129.00;;;28.00
10598;BMP180;5346;48.766;8.674;2022-08-21T12:58:44;94124.00;;;28.50
10598;BMP180;5346;48.766;8.674;2022-08-21T13:01:50;94135.00;;;28.10
10598;BMP180;5346;48.766;8.674;2022-08-21T13:04:23;94127.00;;;27.70
10598;BMP180;5346;48.766;8.674;2022-08-21T13:07:00;94125.00;;;28.20
10598;BMP180;5346;48.766;8.674;2022-08-21T13:09:30;94120.00;;;28.00
10598;BMP180;5346;48.766;8.674;2022-08-21T13:11:59;94119.00;;;28.50
10598;BMP180;5346;48.766;8.674;2022-08-21T13:14:41;94120.00;;;28.80
10598;BMP180;5346;48.766;8.674;2022-08-21T13:17:12;94121.00;;;28.90
10598;BMP180;5346;48.766;8.674;2022-08-21T13:20:21;94125.00;;;27.80
10598;BMP180;5346;48.766;8.674;2022-08-21T13:22:49;94121.00;;;28.10
10598;BMP180;5346;48.766;8.674;2022-08-21T13:25:34;94146.00;;;27.50
10598;BMP180;5346;48.766;8.674;2022-08-21T13:28:08;94146.00;;;26.90
10598;BMP180;5346;48.766;8.674;2022-08-21T13:30:54;94149.00;;;26.60
10598;BMP180;5346;48.766;8.674;2022-08-21T13:33:25;94125.00;;;27.20
10598;BMP180;5346;48.766;8.674;2022-08-21T13:36:11;94119.00;;;27.00
10598;BMP180;5346;48.766;8.674;2022-08-21T13:38:43;94113.00;;;28.20
10598;BMP180;5346;48.766;8.674;2022-08-21T13:41:31;94132.00;;;27.70
10598;BMP180;5346;48.766;8.674;2022-08-21T13:44:02;94137.00;;;26.60
10598;BMP180;5346;48.766;8.674;2022-08-21T13:46:37;94119.00;;;26.10
10598;BMP180;5346;48.766;8.674;2022-08-21T13:49:06;94139.00;;;26.50
10598;BMP180;5346;48.766;8.674;2022-08-21T13:51:35;94134.00;;;26.10
10598;BMP180;5346;48.766;8.674;2022-08-21T13:54:29;94123.00;;;25.60
10598;BMP180;5346;48.766;8.674;2022-08-21T13:57:19;94118.00;;;26.30
10598;BMP180;5346;48.766;8.674;2022-08-21T14:00:17;94122.00;;;26.40
10598;BMP180;5346;48.766;8.674;2022-08-21T14:02:49;94116.00;;;26.50
10598;BMP180;5346;48.766;8.674;2022-08-21T14:05:29;94118.00;;;27.10
10598;BMP180;5346;48.766;8.674;2022-08-21T14:10:43;94100.00;;;27.00
10598;BMP180;5346;48.766;8.674;2022-08-21T14:13:33;94103.00;;;27.30
10598;BMP180;5346;48.766;8.674;2022-08-21T14:21:33;94102.00;;;27.60
10598;BMP180;5346;48.766;8.674;2022-08-21T14:26:53;94098.00;;;27.60
10598;BMP180;5346;48.766;8.674;2022-08-21T14:29:24;94116.00;;;26.90
10598;BMP180;5346;48.766;8.674;2022-08-21T14:32:15;94118.00;;;26.10
10598;BMP180;5346;48.766;8.674;2022-08-21T14:34:53;94120.00;;;25.40
10598;BMP180;5346;48.766;8.674;2022-08-21T14:37:27;94117.00;;;24.90
10598;BMP180;5346;48.766;8.674;2022-08-21T14:39:54;94123.00;;;24.60
10598;BMP180;5346;48.766;8.674;2022-08-21T14:42:45;94125.00;;;24.50
10598;BMP180;5346;48.766;8.674;2022-08-21T14:47:55;94126.00;;;24.10
10598;BMP180;5346;48.766;8.674;2022-08-21T14:50:23;94120.00;;;24.10
10598;BMP180;5346;48.766;8.674;2022-08-21T14:52:54;94116.00;;;24.10
10598;BMP180;5346;48.766;8.674;2022-08-21T14:55:38;94125.00;;;24.10
10598;BMP180;5346;48.766;8.674;2022-08-21T14:58:25;94119.00;;;23.90
10598;BMP180;5346;48.766;8.674;2022-08-21T15:00:59;94109.00;;;23.70
10598;BMP180;5346;48.766;8.674;2022-08-21T15:03:31;94118.00;;;23.60
10598;BMP180;5346;48.766;8.674;2022-08-21T15:06:00;94109.00;;;23.50
10598;BMP180;5346;48.766;8.674;2022-08-21T15:08:35;94109.00;;;23.40
10598;BMP180;5346;48.766;8.674;2022-08-21T15:11:04;94106.00;;;23.30
10598;BMP180;5346;48.766;8.674;2022-08-21T15:13:46;94106.00;;;23.20
10598;BMP180;5346;48.766;8.674;2022-08-21T15:16:20;94112.00;;;23.20
10598;BMP180;5346;48.766;8.674;2022-08-21T15:18:48;94102.00;;;23.20
10598;BMP180;5346;48.766;8.674;2022-08-21T15:21:16;94108.00;;;23.30
10598;BMP180;5346;48.766;8.674;2022-08-21T15:23:50;94099.00;;;23.30
10598;BMP180;5346;48.766;8.674;2022-08-21T15:26:18;94104.00;;;23.30
10598;BMP180;5346;48.766;8.674;2022-08-21T15:28:46;94105.00;;;23.20
10598;BMP180;5346;48.766;8.674;2022-08-21T15:31:20;94102.00;;;23.10
10598;BMP180;5346;48.766;8.674;2022-08-21T15:33:47;94105.00;;;22.90
10598;BMP180;5346;48.766;8.674;2022-08-21T15:36:19;94102.00;;;22.90
10598;BMP180;5346;48.766;8.674;2022-08-21T15:38:53;94101.00;;;22.70
10598;BMP180;5346;48.766;8.674;2022-08-21T15:41:21;94099.00;;;22.70
10598;BMP180;5346;48.766;8.674;2022-08-21T15:44:10;94096.00;;;22.80
10598;BMP180;5346;48.766;8.674;2022-08-21T15:46:39;94093.00;;;22.70
10598;BMP180;5346;48.766;8.674;2022-08-21T15:49:18;94103.00;;;22.60
10598;BMP180;5346;48.766;8.674;2022-08-21T15:51:46;94090.00;;;22.50
10598;BMP180;5346;48.766;8.674;2022-08-21T15:54:14;94089.00;;;22.60
10598;BMP180;5346;48.766;8.674;2022-08-21T15:56:51;94088.00;;;22.60
10598;BMP180;5346;48.766;8.674;2022-08-21T15:59:22;94091.00;;;22.50
10598;BMP180;5346;48.766;8.674;2022-08-21T16:01:56;94090.00;;;22.30
10598;BMP180;5346;48.766;8.674;2022-08-21T16:04:28;94084.00;;;22.20
10598;BMP180;5346;48.766;8.674;2022-08-21T16:06:55;94083.00;;;22.00
10598;BMP180;5346;48.766;8.674;2022-08-21T16:09:35;94078.00;;;21.80
10598;BMP180;5346;48.766;8.674;2022-08-21T16:12:05;94088.00;;;21.70
10598;BMP180;5346;48.766;8.674;2022-08-21T16:14:39;94084.00;;;21.60
10598;BMP180;5346;48.766;8.674;2022-08-21T16:17:07;94085.00;;;21.40
10598;BMP180;5346;48.766;8.674;2022-08-21T16:19:36;94077.00;;;21.30
10598;BMP180;5346;48.766;8.674;2022-08-21T16:22:11;94088.00;;;21.40
10598;BMP180;5346;48.766;8.674;2022-08-21T16:24:39;94079.00;;;21.30
10598;BMP180;5346;48.766;8.674;2022-08-21T16:27:08;94085.00;;;21.10
10598;BMP180;5346;48.766;8.674;2022-08-21T16:29:43;94088.00;;;21.00
10598;BMP180;5346;48.766;8.674;2022-08-21T16:32:12;94079.00;;;21.00
10598;BMP180;5346;48.766;8.674;2022-08-21T16:34:47;94078.00;;;20.90
10598;BMP180;5346;48.766;8.674;2022-08-21T16:37:21;94080.00;;;21.10
10598;BMP180;5346;48.766;8.674;2022-08-21T16:39:50;94075.00;;;21.10
10598;BMP180;5346;48.766;8.674;2022-08-21T16:42:22;94076.00;;;21.20
10598;BMP180;5346;48.766;8.674;2022-08-21T16:44:57;94077.00;;;21.20
10598;BMP180;5346;48.766;8.674;2022-08-21T16:47:25;94069.00;;;21.30
10598;BMP180;5346;48.766;8.674;2022-08-21T16:49:54;94066.00;;;21.30
10598;BMP180;5346;48.766;8.674;2022-08-21T16:52:28;94059.00;;;21.40